»·PEaware :: N75NX CYCG-KPDX

N75NX :: CYCG-KPDX

FLIGHT INFORMATION

Flight Status: Arrived
Operator: Privately registered:
United States
More flights under this callsign
Pilot: Leighton M. (11234)
Aircraft: PILATUS PC-12 EAGLE
(PC12)
More flights by this aircraft type
Origin: CYCG Castlegar
Canada
Destination: KPDX Portland Intl
United States
More flights between these airports :: More routes between these airports
Route: JOMRU V112 GEG V448 DMAZH
File this flight plan on PilotEdge
Remarks:
Altitude:
(Current/Filed)
16,000ft
Speed:
(Current/Filed)
230kts
Departed: 13-May-17 01:31 PM
Arrived: 13-May-17 03:24 PM
Distance/Time
Traveled:
300nm/1:53
Distance/Time
To Go:
Arrived

Flight Plot

Page will automatically refresh every two minutes.

Flight plan parsing failed; only flown route is shown


Map Options




Map Legend


Flown Route
Filed Route
Departure Airport
Arrival Airport
Navaid (VOR, NDB)
Fix

Horizontal Profiles

Position Reports

Time Latitude Longitude Heading Altitude Ground
Speed
13-May-17 13:18 49.300632 -117.635846 80 1628ft 0kts
13-May-17 13:19 49.300632 -117.635846 80 1628ft 0kts
13-May-17 13:20 49.300632 -117.635846 80 1628ft 0kts
13-May-17 13:21 49.300632 -117.635846 80 1628ft 0kts
13-May-17 13:22 49.300632 -117.635846 80 1628ft 0kts
13-May-17 13:23 49.300632 -117.635846 80 1628ft 0kts
13-May-17 13:24 49.300632 -117.635846 80 1628ft 0kts
13-May-17 13:25 49.300632 -117.635846 80 1628ft 0kts
13-May-17 13:26 49.300632 -117.635846 80 1628ft 0kts
13-May-17 13:27 49.300632 -117.635846 80 1628ft 0kts
13-May-17 13:28 49.300632 -117.635846 80 1628ft 0kts
13-May-17 13:29 49.300632 -117.635846 80 1628ft 0kts
13-May-17 13:30 49.301879 -117.634382 342 1628ft 23kts
13-May-17 13:31 49.303016 -117.634588 166 1628ft 0kts
13-May-17 13:32 49.303016 -117.634588 166 1628ft 0kts
13-May-17 13:33 49.299521 -117.633502 168 1628ft 79kts
13-May-17 13:34 49.276832 -117.629934 188 2287ft 117kts
13-May-17 13:35 49.255418 -117.637145 201 3310ft 118kts
13-May-17 13:36 49.235072 -117.647392 200 4677ft 115kts
13-May-17 13:37 49.213989 -117.656463 175 5822ft 132kts
13-May-17 13:38 49.190740 -117.633176 146 7259ft 138kts
13-May-17 13:39 49.169961 -117.615924 162 8307ft 148kts
13-May-17 13:40 49.134969 -117.601506 170 9212ft 180kts
13-May-17 13:41 49.098275 -117.591135 172 10007ft 194kts
13-May-17 13:42 49.058818 -117.581563 172 10811ft 200kts
13-May-17 13:43 49.017560 -117.572187 173 11631ft 202kts
13-May-17 13:44 48.974879 -117.562538 173 12475ft 201kts
13-May-17 13:45 48.934309 -117.553436 173 13278ft 199kts
13-May-17 13:46 48.895562 -117.544777 173 14052ft 198kts
13-May-17 13:47 48.863821 -117.537708 173 14703ft 196kts
13-May-17 13:48 48.816926 -117.527299 173 15672ft 195kts
13-May-17 13:49 48.770964 -117.517096 173 16042ft 215kts
13-May-17 13:50 48.727308 -117.507422 172 16045ft 230kts
13-May-17 13:51 48.680821 -117.497134 172 15922ft 239kts
13-May-17 13:52 48.632684 -117.486510 172 15927ft 239kts
13-May-17 13:53 48.576640 -117.478453 199 15932ft 237kts
13-May-17 13:54 48.542662 -117.547796 232 15936ft 241kts
13-May-17 13:55 48.513709 -117.607099 229 15937ft 241kts
13-May-17 13:56 48.486177 -117.661011 229 15943ft 241kts
13-May-17 13:57 48.454935 -117.721641 229 15946ft 241kts
13-May-17 13:58 48.421405 -117.786497 229 15945ft 241kts
13-May-17 13:59 48.387181 -117.852524 229 15945ft 241kts
13-May-17 14:00 48.351892 -117.920441 229 15945ft 241kts
13-May-17 14:01 48.316208 -117.988939 229 15945ft 241kts
13-May-17 14:02 48.281990 -118.054463 229 15944ft 241kts
13-May-17 14:03 48.246343 -118.122556 229 15944ft 241kts
13-May-17 14:04 48.208265 -118.195103 229 15944ft 241kts
13-May-17 14:05 48.169512 -118.268732 229 15944ft 241kts
13-May-17 14:06 48.138467 -118.327522 229 15934ft 241kts
13-May-17 14:07 48.108820 -118.383642 229 15930ft 241kts
13-May-17 14:08 48.078926 -118.440072 229 15928ft 241kts
13-May-17 14:09 48.048596 -118.497199 229 15927ft 241kts
13-May-17 14:10 48.017021 -118.556545 229 15930ft 241kts
13-May-17 14:11 47.986471 -118.613838 229 15929ft 241kts
13-May-17 14:12 47.957279 -118.668572 229 15928ft 241kts
13-May-17 14:13 47.923736 -118.731829 229 15932ft 241kts
13-May-17 14:14 47.889802 -118.795146 229 15945ft 241kts
13-May-17 14:15 47.861209 -118.848288 229 15956ft 241kts
13-May-17 14:16 47.833365 -118.899933 229 15964ft 243kts
13-May-17 14:17 47.806933 -118.948877 229 15965ft 245kts
13-May-17 14:18 47.779462 -118.999652 229 15964ft 247kts
13-May-17 14:19 47.748182 -119.057362 230 15964ft 249kts
13-May-17 14:20 47.716561 -119.115636 230 15959ft 250kts
13-May-17 14:21 47.680994 -119.180985 230 15954ft 251kts
13-May-17 14:22 47.644688 -119.247514 230 15949ft 251kts
13-May-17 14:23 47.608258 -119.314108 230 15946ft 251kts
13-May-17 14:24 47.571601 -119.380950 230 15945ft 251kts
13-May-17 14:25 47.533019 -119.451129 230 15945ft 251kts
13-May-17 14:26 47.493014 -119.523700 230 15945ft 251kts
13-May-17 14:27 47.454176 -119.593971 230 15945ft 251kts
13-May-17 14:28 47.415966 -119.662975 229 15985ft 250kts
13-May-17 14:29 47.376325 -119.734994 229 16000ft 251kts
13-May-17 14:30 47.333545 -119.811873 229 16000ft 251kts
13-May-17 14:31 47.289937 -119.889939 229 16000ft 251kts
13-May-17 14:32 47.248535 -119.963844 229 16000ft 251kts
13-May-17 14:33 47.206246 -120.039130 229 16000ft 251kts
13-May-17 14:34 47.162473 -120.116836 229 15999ft 251kts
13-May-17 14:35 47.119406 -120.193074 229 15996ft 252kts
13-May-17 14:36 47.075800 -120.270052 229 15993ft 252kts
13-May-17 14:37 47.032468 -120.346330 229 15991ft 252kts
13-May-17 14:38 46.988843 -120.422887 229 15990ft 250kts
13-May-17 14:39 46.945026 -120.499524 230 15989ft 247kts
13-May-17 14:40 46.902708 -120.573335 230 15989ft 244kts
13-May-17 14:41 46.863062 -120.642393 231 15992ft 242kts
13-May-17 14:42 46.828264 -120.703464 231 16003ft 241kts
13-May-17 14:43 46.786786 -120.775573 230 16012ft 241kts
13-May-17 14:44 46.744510 -120.848653 230 16022ft 241kts
13-May-17 14:45 46.702394 -120.921245 230 16028ft 241kts
13-May-17 14:46 46.660172 -120.993789 231 16028ft 241kts
13-May-17 14:47 46.618406 -121.065364 231 16028ft 242kts
13-May-17 14:48 46.575656 -121.138480 231 16027ft 244kts
13-May-17 14:49 46.532227 -121.212549 232 16027ft 246kts
13-May-17 14:50 46.488870 -121.286347 232 16034ft 246kts
13-May-17 14:51 46.445317 -121.360233 232 16050ft 247kts
13-May-17 14:52 46.401974 -121.433560 232 16075ft 247kts
13-May-17 14:53 46.358945 -121.506161 232 16082ft 247kts
13-May-17 14:54 46.316977 -121.576790 232 16081ft 247kts
13-May-17 14:55 46.282601 -121.634505 232 16081ft 247kts
13-May-17 14:56 46.250921 -121.687951 231 16084ft 248kts
13-May-17 14:57 46.216503 -121.745832 231 16096ft 247kts
13-May-17 14:58 46.180628 -121.805732 231 16110ft 247kts
13-May-17 14:59 46.145912 -121.863541 231 16123ft 247kts
13-May-17 15:00 46.110346 -121.922634 231 16136ft 247kts
13-May-17 15:01 46.073527 -121.983677 231 16138ft 247kts
13-May-17 15:02 46.035840 -122.046016 231 16138ft 247kts
13-May-17 15:03 46.009929 -122.088797 231 16138ft 247kts
13-May-17 15:04 45.984871 -122.130103 231 16138ft 247kts
13-May-17 15:05 45.937988 -122.157288 196 16030ft 249kts
13-May-17 15:06 45.890458 -122.173403 196 15342ft 237kts
13-May-17 15:07 45.851406 -122.186439 196 14720ft 231kts
13-May-17 15:08 45.807676 -122.200903 196 14012ft 228kts
13-May-17 15:09 45.764206 -122.215230 196 13302ft 226kts
13-May-17 15:10 45.724834 -122.228179 196 12655ft 226kts
13-May-17 15:11 45.683182 -122.222787 157 11748ft 228kts
13-May-17 15:12 45.648535 -122.197916 156 10611ft 217kts
13-May-17 15:13 45.610886 -122.173848 184 9328ft 201kts
13-May-17 15:14 45.579072 -122.190935 206 8195ft 191kts
13-May-17 15:15 45.550307 -122.209911 206 7107ft 188kts
13-May-17 15:16 45.521417 -122.229510 206 6220ft 174kts
13-May-17 15:17 45.491292 -122.251154 222 5527ft 152kts
13-May-17 15:18 45.484045 -122.291436 260 4882ft 149kts
13-May-17 15:19 45.495107 -122.346229 303 4088ft 180kts
13-May-17 15:20 45.519756 -122.403904 297 3140ft 151kts
13-May-17 15:21 45.532518 -122.436131 296 3104ft 103kts
13-May-17 15:22 45.548817 -122.481310 294 2457ft 171kts
13-May-17 15:23 45.568237 -122.526089 298 773ft 151kts
13-May-17 15:24 45.577325 -122.550856 297 236ft 96kts
13-May-17 15:25 45.586769 -122.575145 300 33ft 52kts
13-May-17 15:26 45.590401 -122.584108 267 33ft 24kts
13-May-17 15:27 45.588565 -122.585179 122 33ft 13kts
13-May-17 15:28 45.587649 -122.584461 213 33ft 0kts
13-May-17 15:29 45.587649 -122.584461 213 33ft 0kts
13-May-17 15:30 45.587649 -122.584461 213 33ft 0kts

Navigation Log

Ident Type
Flight plan parsing failed, navigation log unavailable